Aviation Digital Data Service (ADDS)

Output produced by METARs form (1733 UTC 27 May 2017)
found at http://www.aviationweather.gov/adds/metars/
 
KVCT 271602Z 2716/2812 16015G22KT 5SM HZ SCT035 BKN250 
     TEMPO 2716/2718 BKN035 
     FM280200 15012KT P6SM SCT015 
     FM280400 16010KT P6SM OVC015
       
KVEL 271453Z 2715/2812 VRB03KT P6SM BKN080 
     TEMPO 2715/2718 06010G20KT 
     FM280200 30005KT P6SM FEW120
       
KVGT 271722Z 2718/2818 08008KT P6SM SKC 
     FM280400 VRB06KT P6SM SKC 
     FM281200 33008KT P6SM SKC 
     FM281700 09006KT P6SM SKC
       
KVIS 271721Z 2718/2818 31007KT P6SM SKC
       
KVLD 271720Z 2718/2818 21005KT P6SM SKC 
     FM280900 00000KT 3SM BR SCT004 OVC007 
     FM281400 26006KT P6SM BKN015
       
KVNY 271121Z 2712/2812 VRB03KT P6SM BKN035 
     FM271600 VRB03KT P6SM SCT040 
     FM272100 15008KT P6SM SKC 
     FM280200 VRB03KT P6SM SKC
       
TAF KVPS 271500Z 2715/2821 23006KT 9999 FEW020 SCT200 QNH3005INS 
     BECMG 2720/2721 21010G15KT 9999 SCT025 SCT050 QNH2997INS 
     BECMG 2807/2808 20006KT 9999 BKN015 QNH2996INS 
     BECMG 2810/2811 21006KT 9999 BKN007 QNH2997INS 
     BECMG 2813/2814 24010G15KT 9999 BKN025 QNH3001INS 
     BECMG 2818/2819 22009KT 9999 SCT025 QNH2998INS TX29/2717Z TN21/2808Z
       
KVQQ 271720Z 2718/2818 23005KT P6SM SKC 
     FM280100 19003KT P6SM SKC 
     FM280800 24003KT 3SM BR BKN005 
     FM281300 26008KT P6SM SCT035
       
KVRB 271732Z 2718/2818 VRB05KT P6SM SKC 
     FM280300 17004KT P6SM SKC 
     FM281100 27004KT P6SM SKC
       
KVTN 271459Z 2715/2812 32005KT P6SM VCSH OVC050 
     TEMPO 2715/2717 3SM -SHRA OVC030 
     FM271700 35008KT P6SM BKN040 
     FM280000 29007KT P6SM SCT150